Time;durP1;ratioP1;P1;durP2;ratioP2;P2;SDS_P1;SDS_P2;PMS_P1;PMS_P2;Temp;Humidity;BMP_temperature;BMP_pressure;BME280_temperature;BME280_humidity;BME280_pressure;Samples;Min_cycle;Max_cycle;Signal;HPM_P1;HPM_P2
2021/07/04 00:02:14;;;;;;;8.70;6.72;;;;;24.70;101070.00;;;;5079404;28;20217;-80
2021/07/04 00:04:41;;;;;;;8.43;7.53;;;;;24.70;101073.00;;;;5082169;28;20199;-80
2021/07/04 00:07:10;;;;;;;8.68;6.90;;;;;24.70;101083.00;;;;5068195;28;20195;-80
2021/07/04 00:09:37;;;;;;;9.02;6.32;;;;;24.70;101075.00;;;;5079453;28;20281;-80
2021/07/04 00:12:06;;;;;;;7.63;5.88;;;;;24.70;101073.00;;;;5068733;28;20241;-80
2021/07/04 00:14:34;;;;;;;8.05;7.25;;;;;24.70;101076.00;;;;5073017;28;20227;-80
2021/07/04 00:17:02;;;;;;;10.32;7.00;;;;;24.70;101073.00;;;;5068134;28;20215;-80
2021/07/04 00:19:29;;;;;;;8.77;7.57;;;;;24.70;101075.00;;;;5068072;28;20225;-80
2021/07/04 00:21:56;;;;;;;8.38;7.03;;;;;24.70;101074.00;;;;5080726;28;20202;-80
2021/07/04 00:24:23;;;;;;;9.90;8.05;;;;;24.70;101073.00;;;;5089058;28;20201;-80
2021/07/04 00:26:51;;;;;;;8.77;7.22;;;;;24.70;101067.00;;;;5091673;28;20285;-80
2021/07/04 00:29:18;;;;;;;8.48;7.32;;;;;24.70;101071.00;;;;5082722;28;20665;-80
2021/07/04 00:31:46;;;;;;;8.85;6.53;;;;;24.70;101065.00;;;;5081658;28;20615;-80
2021/07/04 00:34:14;;;;;;;8.48;6.90;;;;;24.70;101065.00;;;;5078029;28;20356;-80
2021/07/04 00:36:41;;;;;;;8.10;6.72;;;;;24.70;101065.00;;;;5071486;28;20214;-80
2021/07/04 00:39:08;;;;;;;7.68;5.97;;;;;24.70;101064.00;;;;5081077;28;20198;-80
2021/07/04 00:41:36;;;;;;;7.40;6.40;;;;;24.70;101059.00;;;;5091935;28;20206;-80
2021/07/04 00:44:03;;;;;;;7.22;6.53;;;;;24.70;101059.00;;;;5084471;28;20203;-81
2021/07/04 00:46:31;;;;;;;7.78;6.80;;;;;24.70;101054.00;;;;5072048;28;20202;-80
2021/07/04 00:49:01;;;;;;;10.80;7.13;;;;;24.70;101057.00;;;;5070982;28;20236;-80
2021/07/04 00:51:28;;;;;;;9.52;6.97;;;;;24.70;101050.00;;;;5071716;28;20198;-80
2021/07/04 00:53:56;;;;;;;7.70;6.90;;;;;24.70;101043.00;;;;5078560;28;20739;-80
2021/07/04 00:56:23;;;;;;;7.03;6.32;;;;;24.70;101038.00;;;;5083731;28;20199;-80
2021/07/04 00:58:50;;;;;;;6.43;5.82;;;;;24.70;101037.00;;;;5071595;28;20195;-80
2021/07/04 01:01:17;;;;;;;9.65;6.68;;;;;24.70;101041.00;;;;5071911;28;20203;-80
2021/07/04 01:03:45;;;;;;;7.45;6.53;;;;;24.60;101043.00;;;;5070925;28;20207;-80
2021/07/04 01:06:13;;;;;;;7.35;5.97;;;;;24.60;101043.00;;;;5089926;28;20193;-80
2021/07/04 01:08:41;;;;;;;9.88;6.50;;;;;24.60;101040.00;;;;5089298;28;20288;-81
2021/07/04 01:11:08;;;;;;;7.70;6.68;;;;;24.60;101039.00;;;;5091577;28;20209;-80
2021/07/04 01:13:36;;;;;;;7.25;6.45;;;;;24.60;101033.00;;;;5080546;28;20219;-80
2021/07/04 01:16:03;;;;;;;6.82;6.20;;;;;24.60;101030.00;;;;5071496;28;20234;-80
2021/07/04 01:18:31;;;;;;;7.78;5.97;;;;;24.60;101032.00;;;;5071717;28;20194;-80
2021/07/04 01:21:02;;;;;;;7.20;6.00;;;;;24.60;101033.00;;;;5073703;28;20195;-80
2021/07/04 01:23:31;;;;;;;6.43;5.80;;;;;24.60;101026.00;;;;5087297;28;20562;-80
2021/07/04 01:25:58;;;;;;;6.28;5.68;;;;;24.60;101025.00;;;;5070505;28;20202;-80
2021/07/04 01:28:25;;;;;;;7.82;6.88;;;;;24.50;101023.00;;;;5083116;28;20205;-80
2021/07/04 01:30:57;;;;;;;10.45;6.22;;;;;24.50;101019.00;;;;5090809;28;21044;-80
2021/07/04 01:33:26;;;;;;;9.48;5.57;;;;;24.50;101019.00;;;;5087928;28;20645;-80
2021/07/04 01:35:53;;;;;;;7.28;5.38;;;;;24.50;101014.00;;;;5080836;28;20221;-80
2021/07/04 01:38:20;;;;;;;9.25;6.18;;;;;24.50;101017.00;;;;5072712;28;20198;-80
2021/07/04 01:40:49;;;;;;;6.03;5.35;;;;;24.40;101015.00;;;;5088620;28;20190;-80
2021/07/04 01:43:17;;;;;;;6.85;5.88;;;;;24.50;101008.00;;;;5077749;28;20198;-80
2021/07/04 01:45:44;;;;;;;7.75;5.95;;;;;24.50;101006.00;;;;5078846;28;20222;-80
2021/07/04 01:48:13;;;;;;;5.50;5.00;;;;;24.40;101009.00;;;;5070367;28;20202;-80
2021/07/04 01:50:43;;;;;;;5.90;5.05;;;;;24.40;101008.00;;;;5069977;28;20190;-80
2021/07/04 01:53:11;;;;;;;5.88;5.28;;;;;24.40;101000.00;;;;5072503;28;20229;-80
2021/07/04 01:55:38;;;;;;;6.05;5.13;;;;;24.40;100998.00;;;;5090995;28;20198;-80
2021/07/04 01:58:07;;;;;;;5.72;4.95;;;;;24.40;100998.00;;;;5082049;28;20191;-80
2021/07/04 02:00:36;;;;;;;5.03;4.57;;;;;24.40;100998.00;;;;5069607;28;20184;-80
2021/07/04 02:03:06;;;;;;;6.25;4.82;;;;;24.40;100991.00;;;;5070226;28;20230;-81
2021/07/04 02:05:34;;;;;;;5.50;5.00;;;;;24.40;100991.00;;;;5089556;28;20651;-80
2021/07/04 02:08:01;;;;;;;5.88;5.32;;;;;24.40;100993.00;;;;5088715;28;20198;-80
2021/07/04 02:10:30;;;;;;;5.38;4.88;;;;;24.40;100995.00;;;;5071271;28;20195;-80
2021/07/04 02:12:58;;;;;;;5.65;5.15;;;;;24.40;100993.00;;;;5070124;28;20222;-80
2021/07/04 02:15:29;;;;;;;5.47;4.97;;;;;24.30;101000.00;;;;5069740;28;20686;-80
2021/07/04 02:17:57;;;;;;;8.20;4.80;;;;;24.30;101001.00;;;;5072972;28;20198;-80
2021/07/04 02:20:33;;;;;;;5.50;5.00;;;;;24.30;101000.00;;;;5076125;28;20199;-80
2021/07/04 02:23:02;;;;;;;5.38;4.88;;;;;24.30;101003.00;;;;5085704;28;20548;-80
2021/07/04 02:25:29;;;;;;;5.55;4.78;;;;;24.30;100999.00;;;;5070476;28;20195;-79
2021/07/04 02:27:57;;;;;;;4.40;4.00;;;;;24.30;101009.00;;;;5082889;28;20195;-80
2021/07/04 02:30:26;;;;;;;5.00;4.50;;;;;24.30;101009.00;;;;5070174;28;20214;-80
2021/07/04 02:32:54;;;;;;;5.05;4.57;;;;;24.30;101004.00;;;;5068901;28;20358;-80
2021/07/04 02:35:21;;;;;;;6.63;4.70;;;;;24.30;101007.00;;;;5071474;28;20209;-80
2021/07/04 02:37:48;;;;;;;5.70;4.47;;;;;24.30;101008.00;;;;5068599;28;20199;-80
2021/07/04 02:40:16;;;;;;;5.65;4.90;;;;;24.30;101005.00;;;;5069215;28;20195;-80
2021/07/04 02:42:43;;;;;;;6.18;5.20;;;;;24.30;101013.00;;;;5071185;28;20195;-80
2021/07/04 02:45:11;;;;;;;10.00;5.03;;;;;24.30;101006.00;;;;5070466;28;20215;-80
2021/07/04 02:47:40;;;;;;;5.70;4.35;;;;;24.30;101002.00;;;;5087234;28;20191;-80
2021/07/04 02:50:08;;;;;;;6.55;5.45;;;;;24.30;101010.00;;;;5073067;28;20198;-80
2021/07/04 02:52:36;;;;;;;6.45;5.10;;;;;24.20;101005.00;;;;5072566;28;20218;-79
2021/07/04 02:55:05;;;;;;;4.80;4.40;;;;;24.20;101003.00;;;;5086203;28;20198;-80
2021/07/04 02:57:32;;;;;;;6.50;5.05;;;;;24.20;100995.00;;;;5088737;28;20198;-80
2021/07/04 02:59:59;;;;;;;5.28;4.78;;;;;24.20;101000.00;;;;5069647;28;20205;-79
2021/07/04 03:02:27;;;;;;;5.38;4.88;;;;;24.20;101005.00;;;;5069354;28;20219;-80
2021/07/04 03:04:55;;;;;;;6.18;5.07;;;;;24.20;100998.00;;;;5083788;28;20699;-79
2021/07/04 03:07:22;;;;;;;5.20;4.70;;;;;24.20;100999.00;;;;5076265;28;20611;-80
2021/07/04 03:09:50;;;;;;;5.88;5.15;;;;;24.20;100998.00;;;;5068906;28;20206;-80
2021/07/04 03:12:17;;;;;;;7.32;5.38;;;;;24.20;100998.00;;;;5068705;28;20199;-80
2021/07/04 03:14:44;;;;;;;5.47;4.97;;;;;24.20;101000.00;;;;5068052;28;20210;-80
2021/07/04 03:17:12;;;;;;;6.50;4.97;;;;;24.20;101004.00;;;;5082534;28;20199;-79
2021/07/04 03:19:39;;;;;;;4.85;4.40;;;;;24.20;100999.00;;;;5073269;28;20225;-79
2021/07/04 03:22:08;;;;;;;5.35;4.85;;;;;24.20;100991.00;;;;5080176;28;20205;-80
2021/07/04 03:24:35;;;;;;;4.88;4.03;;;;;24.20;100994.00;;;;5086113;28;20205;-79
2021/07/04 03:27:02;;;;;;;5.45;4.85;;;;;24.20;100989.00;;;;5088171;28;20699;-80
2021/07/04 03:29:29;;;;;;;5.00;4.43;;;;;24.20;100988.00;;;;5076722;28;20198;-80
2021/07/04 03:31:57;;;;;;;4.88;4.38;;;;;24.20;100997.00;;;;5067639;28;20556;-80
2021/07/04 03:34:24;;;;;;;5.60;4.53;;;;;24.20;100994.00;;;;5067963;28;20255;-80
2021/07/04 03:36:51;;;;;;;5.85;4.57;;;;;24.20;100992.00;;;;5068183;28;20202;-80
2021/07/04 03:39:20;;;;;;;5.18;4.68;;;;;24.10;100991.00;;;;5076747;28;20210;-79
2021/07/04 03:41:47;;;;;;;5.95;5.35;;;;;24.10;100995.00;;;;5087656;28;20201;-79
2021/07/04 03:44:14;;;;;;;4.95;4.45;;;;;24.10;100998.00;;;;5078351;28;20203;-79
2021/07/04 03:46:41;;;;;;;5.43;4.35;;;;;24.10;100997.00;;;;5067161;28;20713;-80
2021/07/04 03:49:09;;;;;;;4.82;4.32;;;;;24.10;100998.00;;;;5070013;28;20206;-79
2021/07/04 03:51:37;;;;;;;5.00;4.50;;;;;24.10;101002.00;;;;5068150;28;20210;-80
2021/07/04 03:54:04;;;;;;;6.07;4.43;;;;;24.10;101004.00;;;;5076317;28;20703;-79
2021/07/04 03:56:32;;;;;;;6.10;5.18;;;;;24.10;100999.00;;;;5088323;28;20202;-80
2021/07/04 03:59:00;;;;;;;5.60;4.93;;;;;24.10;100999.00;;;;5082678;28;20207;-80
2021/07/04 04:01:27;;;;;;;5.68;4.82;;;;;24.10;101003.00;;;;5084531;28;20199;-80
2021/07/04 04:03:54;;;;;;;5.28;4.78;;;;;24.10;101008.00;;;;5087448;28;20216;-80
2021/07/04 04:06:22;;;;;;;8.63;4.63;;;;;24.10;101002.00;;;;5089634;28;20255;-80
2021/07/04 04:08:49;;;;;;;5.65;5.15;;;;;24.10;101016.00;;;;5079365;28;20198;-80
2021/07/04 04:11:17;;;;;;;5.20;4.70;;;;;24.10;101011.00;;;;5082532;28;20198;-80
2021/07/04 04:13:45;;;;;;;6.72;5.07;;;;;24.10;101010.00;;;;5067459;28;20226;-80
2021/07/04 04:16:13;;;;;;;5.47;4.97;;;;;24.10;101008.00;;;;5067841;28;20199;-80
2021/07/04 04:18:40;;;;;;;6.03;4.90;;;;;24.10;101007.00;;;;5081318;28;20198;-80
2021/07/04 04:21:09;;;;;;;6.18;5.57;;;;;24.10;101010.00;;;;5085963;28;20225;-80
2021/07/04 04:23:36;;;;;;;8.63;5.93;;;;;24.10;101007.00;;;;5083191;28;20683;-80
2021/07/04 04:26:04;;;;;;;8.23;6.65;;;;;24.10;101009.00;;;;5078948;28;20203;-81
2021/07/04 04:28:32;;;;;;;8.15;7.03;;;;;24.10;101003.00;;;;5087679;28;20206;-80
2021/07/04 04:31:01;;;;;;;8.05;6.60;;;;;24.00;100997.00;;;;5087498;28;20209;-80
2021/07/04 04:33:28;;;;;;;7.65;6.28;;;;;24.10;101002.00;;;;5076523;28;20234;-80
2021/07/04 04:35:55;;;;;;;8.45;7.18;;;;;24.10;100994.00;;;;5067969;28;20230;-80
2021/07/04 04:38:23;;;;;;;8.90;6.93;;;;;24.10;100995.00;;;;5071464;28;20206;-81
2021/07/04 04:40:50;;;;;;;9.38;7.53;;;;;24.10;100990.00;;;;5083681;28;20743;-81
2021/07/04 04:43:17;;;;;;;7.60;6.47;;;;;24.10;100985.00;;;;5078674;28;20195;-80
2021/07/04 04:45:44;;;;;;;13.82;8.88;;;;;24.10;100987.00;;;;5079391;28;20244;-80
2021/07/04 04:48:13;;;;;;;12.43;9.27;;;;;24.10;100985.00;;;;5083449;28;20195;-80
2021/07/04 04:50:40;;;;;;;10.82;8.68;;;;;24.10;100995.00;;;;5083271;28;20541;-81
2021/07/04 04:53:07;;;;;;;12.95;9.38;;;;;24.10;100988.00;;;;5081258;28;20219;-81
2021/07/04 04:55:34;;;;;;;15.88;10.43;;;;;24.10;100994.00;;;;5073829;28;20195;-80
2021/07/04 04:58:02;;;;;;;14.25;10.00;;;;;24.10;100988.00;;;;5082170;28;20205;-80
2021/07/04 05:00:29;;;;;;;15.70;10.48;;;;;24.10;100985.00;;;;5077702;28;20194;-80
2021/07/04 05:02:56;;;;;;;13.68;10.13;;;;;24.20;100983.00;;;;5086945;28;20557;-82
2021/07/04 05:05:25;;;;;;;13.85;10.60;;;;;24.20;100987.00;;;;5079038;28;20202;-81
2021/07/04 05:07:52;;;;;;;13.57;9.93;;;;;24.20;100983.00;;;;5078781;28;20576;-81
2021/07/04 05:10:19;;;;;;;16.00;11.20;;;;;24.20;100983.00;;;;5080272;28;20199;-81
2021/07/04 05:12:46;;;;;;;14.95;10.73;;;;;24.20;100981.00;;;;5081559;28;20194;-81
2021/07/04 05:15:14;;;;;;;17.25;11.18;;;;;24.30;100983.00;;;;5082867;28;20206;-81
2021/07/04 05:17:41;;;;;;;15.98;12.38;;;;;24.30;100974.00;;;;5077170;28;20198;-81
2021/07/04 05:20:09;;;;;;;19.23;12.38;;;;;24.40;100970.00;;;;5083451;28;20195;-81
2021/07/04 05:22:38;;;;;;;17.13;11.35;;;;;24.40;100971.00;;;;5072278;28;20199;-81
2021/07/04 05:25:07;;;;;;;17.38;11.35;;;;;24.40;100972.00;;;;5083058;28;20209;-82
2021/07/04 05:27:34;;;;;;;17.17;12.07;;;;;24.40;100967.00;;;;5085904;28;20203;-80
2021/07/04 05:30:02;;;;;;;18.05;13.10;;;;;24.50;100972.00;;;;5084553;28;20971;-81
2021/07/04 05:32:29;;;;;;;19.35;13.07;;;;;24.50;100978.00;;;;5088744;28;20201;-80
2021/07/04 05:34:58;;;;;;;19.30;12.65;;;;;24.50;100977.00;;;;5082025;28;20225;-81
2021/07/04 05:37:25;;;;;;;16.60;12.20;;;;;24.50;100975.00;;;;5082363;28;20677;-79
2021/07/04 05:39:55;;;;;;;19.88;13.35;;;;;24.60;100977.00;;;;5083987;28;20195;-78
2021/07/04 05:42:22;;;;;;;18.17;12.68;;;;;24.60;100978.00;;;;5072380;28;20219;-80
2021/07/04 05:44:51;;;;;;;19.50;13.80;;;;;24.60;100978.00;;;;5082943;28;20699;-80
2021/07/04 05:47:18;;;;;;;17.58;12.80;;;;;24.60;100975.00;;;;5080720;28;20213;-80
2021/07/04 05:49:46;;;;;;;17.42;12.48;;;;;24.70;100975.00;;;;5082811;28;20214;-79
2021/07/04 05:52:13;;;;;;;20.13;13.48;;;;;24.70;100979.00;;;;5088138;28;20206;-80
2021/07/04 05:54:40;;;;;;;18.20;12.85;;;;;24.70;100980.00;;;;5075550;28;20229;-80
2021/07/04 05:57:09;;;;;;;17.58;13.07;;;;;24.70;100978.00;;;;5075639;28;20199;-81
2021/07/04 05:59:36;;;;;;;20.42;13.75;;;;;24.70;100982.00;;;;5082098;28;20678;-81
2021/07/04 06:02:04;;;;;;;17.77;13.35;;;;;24.70;100982.00;;;;5078445;28;20221;-80
2021/07/04 06:04:31;;;;;;;17.30;12.63;;;;;24.80;100976.00;;;;5070801;28;20206;-81
2021/07/04 06:06:58;;;;;;;17.52;12.77;;;;;24.80;100970.00;;;;5081822;28;20210;-81
2021/07/04 06:09:26;;;;;;;20.92;13.85;;;;;24.80;100979.00;;;;5076238;28;20206;-81
2021/07/04 06:11:53;;;;;;;17.25;13.15;;;;;24.80;100976.00;;;;5080052;28;20194;-81
2021/07/04 06:14:21;;;;;;;17.48;12.95;;;;;24.80;100978.00;;;;5083055;28;20225;-80
2021/07/04 06:16:49;;;;;;;18.80;13.52;;;;;24.80;100969.00;;;;5072227;28;20202;-80
2021/07/04 06:19:16;;;;;;;16.60;11.65;;;;;24.80;100981.00;;;;5073577;28;20199;-80
2021/07/04 06:21:43;;;;;;;18.45;12.02;;;;;24.80;100972.00;;;;5077666;28;20198;-81
2021/07/04 06:24:11;;;;;;;17.00;12.75;;;;;24.80;100971.00;;;;5078167;28;20206;-80
2021/07/04 06:26:38;;;;;;;15.68;11.10;;;;;24.80;100966.00;;;;5082373;28;20210;-82
2021/07/04 06:29:05;;;;;;;16.92;12.68;;;;;24.90;100972.00;;;;5080189;28;20203;-82
2021/07/04 06:31:34;;;;;;;15.68;11.57;;;;;24.90;100967.00;;;;5082284;28;20203;-83
2021/07/04 06:34:01;;;;;;;14.88;12.10;;;;;24.90;100967.00;;;;5083167;28;20237;-82
2021/07/04 06:36:29;;;;;;;15.82;12.00;;;;;25.00;100958.00;;;;5087649;28;20191;-82
2021/07/04 06:38:57;;;;;;;15.02;11.30;;;;;25.00;100954.00;;;;5074995;28;20203;-82
2021/07/04 06:41:25;;;;;;;15.20;10.57;;;;;25.10;100953.00;;;;5079609;28;20617;-82
2021/07/04 06:43:53;;;;;;;16.30;11.50;;;;;25.10;100955.00;;;;5082911;28;20205;-83
2021/07/04 06:46:20;;;;;;;15.60;11.07;;;;;25.20;100954.00;;;;5079045;28;20220;-82
2021/07/04 06:48:49;;;;;;;16.05;11.60;;;;;25.30;100957.00;;;;5071904;28;20195;-83
2021/07/04 06:51:16;;;;;;;14.45;11.32;;;;;25.40;100947.00;;;;5083281;28;20211;-83
2021/07/04 06:53:43;;;;;;;13.70;10.73;;;;;25.40;100943.00;;;;5072093;28;20223;-82
2021/07/04 06:56:10;;;;;;;14.60;11.25;;;;;25.50;100942.00;;;;5078447;28;20294;-82
2021/07/04 06:58:38;;;;;;;15.18;11.35;;;;;25.60;100940.00;;;;5071706;28;20226;-82
2021/07/04 07:01:07;;;;;;;12.80;10.10;;;;;25.70;100937.00;;;;5076864;28;20210;-82
2021/07/04 07:03:35;;;;;;;12.38;9.50;;;;;25.80;100944.00;;;;5088013;28;20786;-82
2021/07/04 07:06:03;;;;;;;12.32;9.60;;;;;25.90;100939.00;;;;5081941;28;20624;-82
2021/07/04 07:08:31;;;;;;;12.60;10.38;;;;;25.90;100945.00;;;;5079275;28;20203;-82
2021/07/04 07:10:58;;;;;;;12.50;9.25;;;;;26.00;100943.00;;;;5084272;28;20803;-82
2021/07/04 07:13:25;;;;;;;13.63;10.05;;;;;26.10;100946.00;;;;5074293;28;20198;-82
2021/07/04 07:15:52;;;;;;;12.38;8.95;;;;;26.10;100938.00;;;;5078393;28;20209;-82
2021/07/04 07:18:20;;;;;;;12.75;10.27;;;;;26.20;100939.00;;;;5071970;28;20191;-82
2021/07/04 07:20:47;;;;;;;12.48;9.60;;;;;26.20;100938.00;;;;5079861;28;20205;-82
2021/07/04 07:23:16;;;;;;;13.30;9.98;;;;;26.30;100945.00;;;;5075763;28;20206;-82
2021/07/04 07:25:44;;;;;;;10.50;8.32;;;;;26.40;100939.00;;;;5084941;28;20504;-81
2021/07/04 07:28:11;;;;;;;8.73;7.82;;;;;26.50;100945.00;;;;5087561;28;20296;-82
2021/07/04 07:30:38;;;;;;;8.25;6.55;;;;;26.60;100948.00;;;;5074100;28;20202;-81
2021/07/04 07:33:05;;;;;;;8.82;7.93;;;;;26.60;100939.00;;;;5075638;28;20226;-82
2021/07/04 07:35:33;;;;;;;8.40;7.28;;;;;26.60;100943.00;;;;5080236;28;20215;-81
2021/07/04 07:38:02;;;;;;;9.50;8.05;;;;;26.70;100948.00;;;;5084905;28;20199;-81
2021/07/04 07:40:34;;;;;;;10.85;8.02;;;;;26.80;100941.00;;;;5083142;28;20202;-81
2021/07/04 07:43:02;;;;;;;9.40;7.75;;;;;26.90;100947.00;;;;5073147;28;20203;-82
2021/07/04 07:45:30;;;;;;;7.95;7.13;;;;;27.00;100940.00;;;;5076891;28;20199;-77
2021/07/04 07:47:57;;;;;;;7.65;6.60;;;;;27.10;100940.00;;;;5072998;28;20680;-77
2021/07/04 07:50:24;;;;;;;9.52;7.90;;;;;27.20;100938.00;;;;5074864;28;20201;-78
2021/07/04 07:52:51;;;;;;;9.18;6.78;;;;;27.30;100929.00;;;;5068430;28;20195;-77
2021/07/04 07:55:19;;;;;;;9.35;7.50;;;;;27.30;100935.00;;;;5073681;28;20237;-77
2021/07/04 07:57:47;;;;;;;9.18;7.75;;;;;27.30;100938.00;;;;5074226;28;20206;-75
2021/07/04 08:00:15;;;;;;;10.48;8.35;;;;;27.30;100927.00;;;;5067322;28;20653;-74
2021/07/04 08:02:43;;;;;;;8.48;7.30;;;;;27.30;100928.00;;;;5068232;28;20696;-74
2021/07/04 08:05:12;;;;;;;7.57;6.85;;;;;27.30;100935.00;;;;5072377;28;20203;-75
2021/07/04 08:07:40;;;;;;;10.75;7.30;;;;;27.30;100933.00;;;;5070599;28;20203;-75
2021/07/04 08:10:09;;;;;;;8.25;7.03;;;;;27.40;100931.00;;;;5077167;28;21076;-75
2021/07/04 08:12:36;;;;;;;8.27;6.80;;;;;27.40;100929.00;;;;5088144;28;20672;-76
2021/07/04 08:15:06;;;;;;;8.73;6.90;;;;;27.50;100936.00;;;;5083770;28;20222;-76
2021/07/04 08:17:33;;;;;;;6.72;6.03;;;;;27.50;100935.00;;;;5068107;28;20199;-76
2021/07/04 08:20:01;;;;;;;6.93;5.63;;;;;27.60;100931.00;;;;5084929;28;20647;-76
2021/07/04 08:22:28;;;;;;;5.25;4.53;;;;;27.60;100921.00;;;;5072815;28;20282;-76
2021/07/04 08:24:55;;;;;;;4.60;4.05;;;;;27.70;100922.00;;;;5068437;28;20218;-76
2021/07/04 08:27:23;;;;;;;5.13;4.63;;;;;27.70;100915.00;;;;5068395;28;20555;-76
2021/07/04 08:29:50;;;;;;;5.60;4.40;;;;;27.70;100910.00;;;;5076097;28;20202;-75
2021/07/04 08:32:18;;;;;;;4.40;3.78;;;;;27.70;100911.00;;;;5072078;28;20191;-75
2021/07/04 08:34:46;;;;;;;3.47;3.15;;;;;27.80;100916.00;;;;5068129;28;20219;-76
2021/07/04 08:37:13;;;;;;;4.50;4.10;;;;;27.90;100912.00;;;;5068583;28;20202;-75
2021/07/04 08:39:40;;;;;;;4.28;3.35;;;;;27.90;100906.00;;;;5069757;28;20195;-76
2021/07/04 08:42:07;;;;;;;4.10;3.40;;;;;28.10;100913.00;;;;5080333;28;20199;-76
2021/07/04 08:44:35;;;;;;;4.47;4.07;;;;;28.10;100903.00;;;;5076532;28;20252;-75
2021/07/04 08:47:02;;;;;;;4.43;3.88;;;;;28.20;100907.00;;;;5082794;28;20206;-76
2021/07/04 08:49:30;;;;;;;4.05;3.65;;;;;28.20;100908.00;;;;5079415;28;20187;-76
2021/07/04 08:51:58;;;;;;;6.47;4.43;;;;;28.20;100912.00;;;;5082730;28;20368;-75
2021/07/04 08:54:25;;;;;;;3.90;3.50;;;;;28.20;100914.00;;;;5080928;28;20225;-78
2021/07/04 08:56:53;;;;;;;6.18;4.68;;;;;28.20;100898.00;;;;5076271;28;20732;-77
2021/07/04 08:59:20;;;;;;;3.15;2.85;;;;;28.20;100905.00;;;;5072072;28;20195;-77
2021/07/04 09:01:50;;;;;;;3.25;2.65;;;;;28.30;100903.00;;;;5071311;28;20195;-78
2021/07/04 09:04:20;;;;;;;2.88;2.58;;;;;28.30;100905.00;;;;5072499;28;20203;-77
2021/07/04 09:06:52;;;;;;;2.38;1.98;;;;;28.40;100910.00;;;;5070896;28;20203;-78
2021/07/04 09:09:24;;;;;;;2.35;2.15;;;;;28.40;100906.00;;;;5070241;28;20198;-78
2021/07/04 09:11:56;;;;;;;5.07;2.42;;;;;28.50;100906.00;;;;5084233;28;20682;-78
2021/07/04 09:14:33;;;;;;;2.28;2.08;;;;;28.50;100900.00;;;;5078513;28;20258;-78
2021/07/04 09:17:01;;;;;;;3.08;2.58;;;;;28.60;100896.00;;;;5090827;28;20198;-78
2021/07/04 09:19:29;;;;;;;3.10;2.80;;;;;28.70;100895.00;;;;5070799;28;20214;-77
2021/07/04 09:22:00;;;;;;;3.45;3.10;;;;;28.80;100887.00;;;;5071827;28;20217;-78
2021/07/04 09:24:30;;;;;;;3.55;3.10;;;;;28.80;100887.00;;;;5071489;28;20203;-77
2021/07/04 09:26:58;;;;;;;3.10;2.80;;;;;28.90;100887.00;;;;5072656;28;20203;-77
2021/07/04 09:29:55;;;;;;;3.17;2.88;;;;;28.90;100884.00;;;;5077790;28;20244;-79
2021/07/04 09:32:25;;;;;;;3.30;3.00;;;;;29.00;100881.00;;;;5007131;28;20603;-78
2021/07/04 09:35:06;;;;;;;4.82;3.40;;;;;29.00;100876.00;;;;5057547;28;20660;-78
2021/07/04 09:37:38;;;;;;;3.20;2.90;;;;;29.00;100883.00;;;;5071401;28;20633;-78
2021/07/04 09:40:09;;;;;;;3.45;3.15;;;;;28.90;100882.00;;;;5077686;28;20194;-78
2021/07/04 09:42:54;;;;;;;3.53;3.22;;;;;28.90;100874.00;;;;5080791;28;20198;-78
2021/07/04 09:45:21;;;;;;;3.72;2.80;;;;;29.10;100878.00;;;;5082167;28;20202;-78
2021/07/04 09:47:52;;;;;;;3.30;2.95;;;;;29.20;100872.00;;;;5076122;28;20580;-78
2021/07/04 09:50:20;;;;;;;3.60;3.30;;;;;29.30;100874.00;;;;5080000;28;20191;-78
2021/07/04 09:52:58;;;;;;;3.28;2.95;;;;;29.20;100871.00;;;;5083797;28;20206;-78
2021/07/04 09:55:26;;;;;;;3.38;3.08;;;;;29.30;100877.00;;;;5087423;28;20222;-78
2021/07/04 09:57:57;;;;;;;2.80;2.60;;;;;29.30;100875.00;;;;5088245;28;20218;-78
2021/07/04 10:00:26;;;;;;;2.50;2.30;;;;;29.30;100878.00;;;;5076756;28;20195;-78
2021/07/04 10:03:21;;;;;;;3.17;2.88;;;;;29.20;100870.00;;;;5085121;28;20225;-78
2021/07/04 10:06:03;;;;;;;3.22;2.90;;;;;29.20;100871.00;;;;5050807;28;20194;-78
2021/07/04 10:08:34;;;;;;;3.60;2.63;;;;;29.30;100873.00;;;;5110082;28;20190;-77
2021/07/04 10:11:04;;;;;;;3.60;3.13;;;;;29.40;100866.00;;;;5099984;28;20718;-78
2021/07/04 10:13:33;;;;;;;3.15;2.75;;;;;29.40;100865.00;;;;5070430;28;21246;-78
2021/07/04 10:16:00;;;;;;;2.65;2.45;;;;;29.40;100859.00;;;;5080161;28;20241;-77
2021/07/04 10:18:28;;;;;;;3.70;3.25;;;;;29.40;100852.00;;;;5086463;28;20198;-78
2021/07/04 10:20:56;;;;;;;4.15;3.00;;;;;29.40;100853.00;;;;5069646;28;20265;-75
2021/07/04 10:23:24;;;;;;;3.92;3.00;;;;;29.30;100855.00;;;;5086404;28;20279;-75
2021/07/04 10:25:55;;;;;;;2.80;2.60;;;;;29.30;100854.00;;;;5089017;28;20190;-75
2021/07/04 10:28:29;;;;;;;4.05;3.10;;;;;29.20;100854.00;;;;5072708;28;20213;-76
2021/07/04 10:30:57;;;;;;;3.08;2.80;;;;;29.20;100849.00;;;;5070998;28;20195;-76
2021/07/04 10:33:32;;;;;;;3.08;2.75;;;;;29.20;100846.00;;;;5070144;28;20331;-77
2021/07/04 10:36:11;;;;;;;3.20;2.65;;;;;29.20;100839.00;;;;5070501;28;20218;-77
2021/07/04 10:38:50;;;;;;;5.03;3.47;;;;;29.30;100838.00;;;;5075302;28;20194;-77
2021/07/04 10:41:21;;;;;;;4.18;3.33;;;;;29.40;100834.00;;;;5079061;28;20198;-77
2021/07/04 10:44:04;;;;;;;6.57;3.47;;;;;29.50;100832.00;;;;5088495;28;20205;-76
2021/07/04 10:47:19;;;;;;;4.28;3.88;;;;;29.50;100819.00;;;;5087399;28;20194;-77
2021/07/04 10:49:55;;;;;;;4.03;2.40;;;;;29.60;100816.00;;;;5080359;28;20599;-77
2021/07/04 10:52:41;;;;;;;8.85;3.65;;;;;29.70;100809.00;;;;5086076;28;20186;-77
2021/07/04 10:55:11;;;;;;;2.83;2.60;;;;;29.90;100811.00;;;;5082785;28;20228;-78
2021/07/04 10:57:55;;;;;;;2.55;2.35;;;;;29.90;100814.00;;;;5072803;28;20203;-78
2021/07/04 11:00:33;;;;;;;3.50;2.70;;;;;30.00;100809.00;;;;5070788;28;20714;-78
2021/07/04 11:03:01;;;;;;;3.00;2.70;;;;;30.00;100806.00;;;;5082060;28;20706;-77
2021/07/04 11:05:48;;;;;;;2.50;2.30;;;;;29.90;100804.00;;;;5087319;28;20198;-80
2021/07/04 11:08:27;;;;;;;4.30;3.13;;;;;30.00;100805.00;;;;5085182;28;20197;-80
2021/07/04 11:11:02;;;;;;;3.25;2.95;;;;;30.00;100801.00;;;;5069202;28;20261;-80
2021/07/04 11:13:34;;;;;;;3.10;2.72;;;;;30.00;100797.00;;;;5077067;28;20209;-78
2021/07/04 11:16:13;;;;;;;3.30;2.65;;;;;30.00;100800.00;;;;5089054;28;20214;-78
2021/07/04 11:18:42;;;;;;;4.18;2.40;;;;;30.00;100797.00;;;;5087690;28;20206;-79
2021/07/04 11:21:11;;;;;;;2.50;2.30;;;;;30.00;100791.00;;;;5069633;28;20199;-79
2021/07/04 11:23:38;;;;;;;2.47;2.28;;;;;30.00;100791.00;;;;5072192;28;20206;-81
2021/07/04 11:26:14;;;;;;;3.33;2.70;;;;;29.90;100782.00;;;;5068756;28;20199;-81
2021/07/04 11:28:43;;;;;;;2.63;2.30;;;;;29.90;100779.00;;;;5069000;28;20198;-81
2021/07/04 11:31:28;;;;;;;3.60;2.63;;;;;29.70;100774.00;;;;5082935;28;20220;-81
2021/07/04 11:33:57;;;;;;;1.85;1.75;;;;;29.80;100775.00;;;;5088459;28;20241;-81
2021/07/04 11:36:26;;;;;;;2.47;2.20;;;;;29.70;100776.00;;;;5088936;28;20714;-81
2021/07/04 11:38:57;;;;;;;2.45;2.25;;;;;29.70;100773.00;;;;5089174;28;20206;-81
2021/07/04 11:41:27;;;;;;;4.40;2.75;;;;;29.60;100779.00;;;;5088869;28;20202;-81
2021/07/04 11:43:59;;;;;;;2.92;2.55;;;;;29.60;100775.00;;;;5088455;28;20205;-81
2021/07/04 11:46:28;;;;;;;2.60;2.35;;;;;29.50;100769.00;;;;5087592;28;20734;-80
2021/07/04 11:48:59;;;;;;;2.58;2.38;;;;;29.40;100768.00;;;;5068429;28;20211;-80
2021/07/04 11:51:45;;;;;;;2.70;2.42;;;;;29.30;100766.00;;;;5068552;28;20199;-80
2021/07/04 11:54:18;;;;;;;3.05;2.75;;;;;29.30;100765.00;;;;5067888;28;20206;-80
2021/07/04 11:56:48;;;;;;;2.80;2.60;;;;;29.30;100759.00;;;;5066711;28;20222;-80
2021/07/04 11:59:21;;;;;;;2.80;2.60;;;;;29.30;100752.00;;;;5082789;28;20205;-80
2021/07/04 12:01:53;;;;;;;3.00;2.60;;;;;29.20;100751.00;;;;5087795;28;20210;-80
2021/07/04 12:04:30;;;;;;;10.32;2.83;;;;;29.30;100756.00;;;;5087007;28;20676;-80
2021/07/04 12:07:00;;;;;;;3.00;2.47;;;;;29.30;100748.00;;;;5074863;28;20256;-80
2021/07/04 12:09:37;;;;;;;4.97;3.10;;;;;29.20;100748.00;;;;5067234;28;20203;-80
2021/07/04 12:12:05;;;;;;;4.78;3.00;;;;;29.30;100748.00;;;;5067673;28;20205;-79
2021/07/04 12:14:36;;;;;;;2.63;2.35;;;;;29.30;100744.00;;;;5067295;28;20203;-79